Estación Meteorológica Peña el Pijo (Robertgarden) [ 12/14/19 08:47:44 CET ]

Fecha Hora Presion(HPa) Temp (°C) Humedad % Rocio (°C) Viento ( m/s) Direccion Lluvia 1Hora(mm) Lluvia 24H(mm) LLuvia Total(mm)
2019-Sep-12 01:01:44 1013.800 12.3 77 8.4       0.51 392.87
2019-Sep-12 02:01:46 1014.100 11.5 78 7.8       0.51 392.87
2019-Sep-12 03:09:04 1013.500 11.3 81 8.2     2.07 2.59 394.94
2019-Sep-12 04:01:42 1012.300 11.1 84 8.5     3.62 5.69 398.05
2019-Sep-12 05:01:42 1010.800 11.6 87 9.5     2.07 8.28 400.64
2019-Sep-12 06:01:34 1011.900 12.8 90 11.2     1.55 10.36 402.71
2019-Sep-12 07:01:41 1012.600 12.9 90 11.3       10.36 402.71
2019-Sep-12 08:01:41 1012.900 12.8 90 11.2       10.36 402.71
2019-Sep-12 09:01:47 1013.600 12.9 90 11.3       10.36 402.71
2019-Sep-12 10:01:44 1014.000 13.5 91 12.1       10.36 402.71
2019-Sep-12 11:01:53 1015.100 13.9 90 12.3       9.84 402.71
2019-Sep-12 12:01:53 1016.000 13.8 91 12.4     2.07 11.91 404.78
2019-Sep-12 13:01:33 1015.500 13.8 91 12.4     1.55 13.98 406.86
2019-Sep-12 14:01:46 1015.900 13.4 91 12.0     4.14 18.13 411.00
2019-Sep-12 15:01:22 1016.000 13.5 91 12.1       18.13 411.00
2019-Sep-12 16:01:45 1015.700 13.3 92 12.0     3.62 22.27 415.14
2019-Sep-12 17:01:32 1015.400 13.4 92 12.1     6.21 29.00 421.88
2019-Sep-12 18:01:44 1014.700 13.8 92 12.5 1.5 ESE 4.14 33.67 426.54
2019-Sep-12 19:01:45 1014.800 13.9 92 12.6       33.67 426.54
2019-Sep-12 20:01:56 1014.900 14.2 93 13.1     1.55 35.22 428.09
2019-Sep-12 21:01:39 1015.600 14.5 93 13.4 5.0 SW   35.74 428.61
2019-Sep-12 22:01:41 1016.400 14.3 93 13.2       35.74 428.61
2019-Sep-12 23:01:48 1016.800 13.9 93 12.8       35.74 428.61

Temperatura Máxima:14°    Temperatura Mínima:11°
Presión Máxima:1016.800 Hpa    Presión Mínima:1010.800 Hpa


Volver